Woodstock, Alabama
Current Conditions -  °F | °C
As of 4:53 PM on Saturday 22 Nov 2014 (Local Time) from KEET Reporting Station
Overcast Overcast  
Wind Chill: 64°   Ceiling: 3500
Heat Index: 64°   Visibility: 10mi
Dew Point: 50°   Wind: 3mph
Humidity: 60%   Direction: NA
Pressure: 30.16"   Gusts: NA
Location:  33.21°N, 87.15°W
Report Text: KEET 222253Z AUTO VRB03KT 10SM OVC035 18/10 A3016 RMK AO2 SLP211 T01780100
Loading
Personal Weather Stations






























Interactive Weather Map New forecast layout! Learn more

10-Day Weather Forecast

Advertisements
Track Severe Weather on mobile